sensor_id;sensor_type;location;lat;lon;timestamp;pressure;altitude;pressure_sealevel;temperature;humidity
64683;BME280;51107;47.652;19.016;2023-07-30T00:00:44;99457.84;;;21.69;68.54
64683;BME280;51107;47.652;19.016;2023-07-30T00:03:13;99453.44;;;21.63;70.22
64683;BME280;51107;47.652;19.016;2023-07-30T00:05:42;99454.94;;;21.59;70.94
64683;BME280;51107;47.652;19.016;2023-07-30T00:08:10;99461.75;;;21.55;71.70
64683;BME280;51107;47.652;19.016;2023-07-30T00:10:39;99463.59;;;21.54;70.57
64683;BME280;51107;47.652;19.016;2023-07-30T00:13:08;99463.84;;;21.53;70.54
64683;BME280;51107;47.652;19.016;2023-07-30T00:15:36;99462.66;;;21.49;69.97
64683;BME280;51107;47.652;19.016;2023-07-30T00:18:05;99459.16;;;21.48;69.80
64683;BME280;51107;47.652;19.016;2023-07-30T00:20:36;99452.06;;;21.49;69.83
64683;BME280;51107;47.652;19.016;2023-07-30T00:23:04;99450.75;;;21.51;69.66
64683;BME280;51107;47.652;19.016;2023-07-30T00:25:33;99465.88;;;21.51;69.96
64683;BME280;51107;47.652;19.016;2023-07-30T00:28:01;99465.50;;;21.47;70.96
64683;BME280;51107;47.652;19.016;2023-07-30T00:30:29;99471.28;;;21.44;71.89
64683;BME280;51107;47.652;19.016;2023-07-30T00:32:58;99478.44;;;21.44;71.84
64683;BME280;51107;47.652;19.016;2023-07-30T00:35:26;99465.50;;;21.35;72.55
64683;BME280;51107;47.652;19.016;2023-07-30T00:37:55;99468.16;;;21.35;73.16
64683;BME280;51107;47.652;19.016;2023-07-30T00:40:24;99465.72;;;21.22;73.47
64683;BME280;51107;47.652;19.016;2023-07-30T00:42:52;99467.66;;;21.27;73.51
64683;BME280;51107;47.652;19.016;2023-07-30T00:45:20;99465.59;;;21.17;74.68
64683;BME280;51107;47.652;19.016;2023-07-30T00:47:49;99451.09;;;21.19;73.33
64683;BME280;51107;47.652;19.016;2023-07-30T00:50:18;99450.19;;;21.26;72.87
64683;BME280;51107;47.652;19.016;2023-07-30T00:52:47;99451.44;;;21.23;73.11
64683;BME280;51107;47.652;19.016;2023-07-30T00:55:15;99444.66;;;21.27;72.02
64683;BME280;51107;47.652;19.016;2023-07-30T00:57:44;99440.41;;;21.38;70.81
64683;BME280;51107;47.652;19.016;2023-07-30T01:00:13;99434.50;;;21.36;71.80
64683;BME280;51107;47.652;19.016;2023-07-30T01:02:43;99444.66;;;21.39;72.13
64683;BME280;51107;47.652;19.016;2023-07-30T01:05:12;99440.62;;;21.36;71.98
64683;BME280;51107;47.652;19.016;2023-07-30T01:07:40;99445.81;;;21.43;71.64
64683;BME280;51107;47.652;19.016;2023-07-30T01:10:09;99436.03;;;21.44;72.05
64683;BME280;51107;47.652;19.016;2023-07-30T01:12:38;99423.44;;;21.39;72.82
64683;BME280;51107;47.652;19.016;2023-07-30T01:15:08;99428.97;;;21.37;72.19
64683;BME280;51107;47.652;19.016;2023-07-30T01:17:37;99426.34;;;21.37;73.08
64683;BME280;51107;47.652;19.016;2023-07-30T01:20:07;99417.34;;;21.38;72.54
64683;BME280;51107;47.652;19.016;2023-07-30T01:22:35;99412.53;;;21.35;72.44
64683;BME280;51107;47.652;19.016;2023-07-30T01:25:04;99414.81;;;21.32;73.03
64683;BME280;51107;47.652;19.016;2023-07-30T01:27:39;99412.53;;;21.35;72.82
64683;BME280;51107;47.652;19.016;2023-07-30T01:30:21;99414.34;;;21.35;73.42
64683;BME280;51107;47.652;19.016;2023-07-30T01:32:52;99414.59;;;21.33;73.88
64683;BME280;51107;47.652;19.016;2023-07-30T01:35:21;99411.50;;;21.36;73.87
64683;BME280;51107;47.652;19.016;2023-07-30T01:37:52;99405.38;;;21.36;73.11
64683;BME280;51107;47.652;19.016;2023-07-30T01:40:22;99407.22;;;21.35;73.36
64683;BME280;51107;47.652;19.016;2023-07-30T01:42:50;99396.63;;;21.35;73.28
64683;BME280;51107;47.652;19.016;2023-07-30T01:45:19;99396.03;;;21.33;73.53
64683;BME280;51107;47.652;19.016;2023-07-30T01:47:48;99396.88;;;21.34;73.32
64683;BME280;51107;47.652;19.016;2023-07-30T01:50:16;99392.34;;;21.34;73.70
64683;BME280;51107;47.652;19.016;2023-07-30T01:52:44;99398.69;;;21.33;74.71
64683;BME280;51107;47.652;19.016;2023-07-30T01:55:13;99382.78;;;21.33;74.38
64683;BME280;51107;47.652;19.016;2023-07-30T01:57:41;99389.59;;;21.29;74.74
64683;BME280;51107;47.652;19.016;2023-07-30T02:00:10;99391.22;;;21.30;73.92
64683;BME280;51107;47.652;19.016;2023-07-30T02:02:42;99392.22;;;21.29;74.63
64683;BME280;51107;47.652;19.016;2023-07-30T02:05:11;99384.84;;;21.43;73.07
64683;BME280;51107;47.652;19.016;2023-07-30T02:07:40;99385.91;;;21.42;73.79
64683;BME280;51107;47.652;19.016;2023-07-30T02:10:08;99388.34;;;21.44;72.94
64683;BME280;51107;47.652;19.016;2023-07-30T02:12:37;99383.59;;;21.46;72.19
64683;BME280;51107;47.652;19.016;2023-07-30T02:15:06;99386.72;;;21.43;73.26
64683;BME280;51107;47.652;19.016;2023-07-30T02:17:34;99395.38;;;21.38;73.43
64683;BME280;51107;47.652;19.016;2023-07-30T02:20:03;99389.59;;;21.41;72.96
64683;BME280;51107;47.652;19.016;2023-07-30T02:22:32;99384.06;;;21.31;74.62
64683;BME280;51107;47.652;19.016;2023-07-30T02:25:01;99376.81;;;21.26;75.26
64683;BME280;51107;47.652;19.016;2023-07-30T02:27:29;99378.56;;;21.32;76.24
64683;BME280;51107;47.652;19.016;2023-07-30T02:29:57;99381.53;;;21.36;75.65
64683;BME280;51107;47.652;19.016;2023-07-30T02:32:26;99377.50;;;21.33;75.81
64683;BME280;51107;47.652;19.016;2023-07-30T02:34:54;99385.47;;;21.21;76.52
64683;BME280;51107;47.652;19.016;2023-07-30T02:37:22;99388.66;;;21.24;77.22
64683;BME280;51107;47.652;19.016;2023-07-30T02:39:51;99400.88;;;21.25;77.05
64683;BME280;51107;47.652;19.016;2023-07-30T02:42:19;99400.44;;;21.16;77.63
64683;BME280;51107;47.652;19.016;2023-07-30T02:44:48;99395.00;;;21.11;78.90
64683;BME280;51107;47.652;19.016;2023-07-30T02:47:16;99397.78;;;21.16;78.28
64683;BME280;51107;47.652;19.016;2023-07-30T02:49:44;99401.00;;;21.18;78.29
64683;BME280;51107;47.652;19.016;2023-07-30T02:52:13;99406.37;;;21.11;79.63
64683;BME280;51107;47.652;19.016;2023-07-30T02:54:42;99408.47;;;21.09;78.46
64683;BME280;51107;47.652;19.016;2023-07-30T02:57:10;99405.59;;;21.11;78.78
64683;BME280;51107;47.652;19.016;2023-07-30T02:59:40;99405.94;;;21.14;78.02
64683;BME280;51107;47.652;19.016;2023-07-30T03:02:10;99400.63;;;21.14;76.65
64683;BME280;51107;47.652;19.016;2023-07-30T03:04:38;99409.13;;;20.93;77.82
64683;BME280;51107;47.652;19.016;2023-07-30T03:07:08;99403.38;;;20.96;78.88
64683;BME280;51107;47.652;19.016;2023-07-30T03:09:37;99410.62;;;21.00;79.54
64683;BME280;51107;47.652;19.016;2023-07-30T03:12:05;99418.00;;;20.98;79.16
64683;BME280;51107;47.652;19.016;2023-07-30T03:14:34;99417.56;;;21.01;79.18
64683;BME280;51107;47.652;19.016;2023-07-30T03:17:03;99415.38;;;20.98;79.63
64683;BME280;51107;47.652;19.016;2023-07-30T03:19:33;99411.91;;;20.98;79.44
64683;BME280;51107;47.652;19.016;2023-07-30T03:22:01;99410.44;;;21.02;79.74
64683;BME280;51107;47.652;19.016;2023-07-30T03:24:29;99399.25;;;21.00;80.77
64683;BME280;51107;47.652;19.016;2023-07-30T03:26:58;99400.03;;;20.89;81.15
64683;BME280;51107;47.652;19.016;2023-07-30T03:29:28;99410.25;;;20.85;81.13
64683;BME280;51107;47.652;19.016;2023-07-30T03:31:57;99405.91;;;20.91;79.87
64683;BME280;51107;47.652;19.016;2023-07-30T03:34:26;99404.41;;;20.83;80.80
64683;BME280;51107;47.652;19.016;2023-07-30T03:36:54;99408.78;;;20.77;82.31
64683;BME280;51107;47.652;19.016;2023-07-30T03:39:23;99406.69;;;20.79;81.99
64683;BME280;51107;47.652;19.016;2023-07-30T03:41:52;99419.56;;;20.76;82.31
64683;BME280;51107;47.652;19.016;2023-07-30T03:44:21;99416.91;;;20.76;81.49
64683;BME280;51107;47.652;19.016;2023-07-30T03:46:50;99410.97;;;20.80;81.69
64683;BME280;51107;47.652;19.016;2023-07-30T03:49:18;99424.06;;;20.75;83.14
64683;BME280;51107;47.652;19.016;2023-07-30T03:51:47;99428.87;;;20.78;82.42
64683;BME280;51107;47.652;19.016;2023-07-30T03:54:15;99427.41;;;20.82;82.87
64683;BME280;51107;47.652;19.016;2023-07-30T03:56:43;99424.31;;;20.85;83.16
64683;BME280;51107;47.652;19.016;2023-07-30T03:59:12;99422.47;;;20.86;84.65
64683;BME280;51107;47.652;19.016;2023-07-30T04:01:40;99423.88;;;20.89;85.56
64683;BME280;51107;47.652;19.016;2023-07-30T04:04:09;99432.38;;;20.91;83.81
64683;BME280;51107;47.652;19.016;2023-07-30T04:06:37;99428.94;;;20.90;83.71
64683;BME280;51107;47.652;19.016;2023-07-30T04:09:06;99432.59;;;20.89;84.24
64683;BME280;51107;47.652;19.016;2023-07-30T04:11:38;99437.91;;;20.89;83.84
64683;BME280;51107;47.652;19.016;2023-07-30T04:14:06;99435.47;;;20.87;83.26
64683;BME280;51107;47.652;19.016;2023-07-30T04:16:37;99436.50;;;20.86;85.34
64683;BME280;51107;47.652;19.016;2023-07-30T04:19:05;99433.62;;;20.88;87.05
64683;BME280;51107;47.652;19.016;2023-07-30T04:21:36;99445.97;;;20.94;86.77
64683;BME280;51107;47.652;19.016;2023-07-30T04:24:05;99443.31;;;20.94;86.15
64683;BME280;51107;47.652;19.016;2023-07-30T04:26:35;99446.78;;;20.95;84.92
64683;BME280;51107;47.652;19.016;2023-07-30T04:29:03;99447.13;;;20.98;86.94
64683;BME280;51107;47.652;19.016;2023-07-30T04:31:32;99446.53;;;20.96;87.17
64683;BME280;51107;47.652;19.016;2023-07-30T04:34:00;99439.75;;;21.00;87.10
64683;BME280;51107;47.652;19.016;2023-07-30T04:36:30;99437.72;;;21.02;85.66
64683;BME280;51107;47.652;19.016;2023-07-30T04:38:59;99441.16;;;21.03;85.69
64683;BME280;51107;47.652;19.016;2023-07-30T04:41:28;99437.47;;;21.04;85.01
64683;BME280;51107;47.652;19.016;2023-07-30T04:43:56;99432.41;;;21.02;90.15
64683;BME280;51107;47.652;19.016;2023-07-30T04:46:26;99435.06;;;21.02;91.85
64683;BME280;51107;47.652;19.016;2023-07-30T04:48:54;99429.53;;;21.04;89.15
64683;BME280;51107;47.652;19.016;2023-07-30T04:51:22;99432.09;;;21.11;87.92
64683;BME280;51107;47.652;19.016;2023-07-30T04:53:51;99434.25;;;21.14;86.77
64683;BME280;51107;47.652;19.016;2023-07-30T04:56:19;99441.88;;;21.22;88.84
64683;BME280;51107;47.652;19.016;2023-07-30T04:58:48;99440.03;;;21.23;88.50
64683;BME280;51107;47.652;19.016;2023-07-30T05:01:16;99441.41;;;21.25;86.43
64683;BME280;51107;47.652;19.016;2023-07-30T05:03:44;99454.22;;;21.28;84.85
64683;BME280;51107;47.652;19.016;2023-07-30T05:06:13;99458.22;;;21.31;82.88
64683;BME280;51107;47.652;19.016;2023-07-30T05:08:41;99454.91;;;21.35;82.89
64683;BME280;51107;47.652;19.016;2023-07-30T05:11:10;99458.13;;;21.37;82.02
64683;BME280;51107;47.652;19.016;2023-07-30T05:13:38;99460.91;;;21.43;82.67
64683;BME280;51107;47.652;19.016;2023-07-30T05:16:07;99461.69;;;21.43;85.71
64683;BME280;51107;47.652;19.016;2023-07-30T05:18:35;99451.94;;;21.44;81.37
64683;BME280;51107;47.652;19.016;2023-07-30T05:21:03;99456.75;;;21.47;82.75
64683;BME280;51107;47.652;19.016;2023-07-30T05:23:32;99453.63;;;21.50;80.14
64683;BME280;51107;47.652;19.016;2023-07-30T05:26:00;99443.63;;;21.52;79.59
64683;BME280;51107;47.652;19.016;2023-07-30T05:28:28;99456.81;;;21.59;80.43
64683;BME280;51107;47.652;19.016;2023-07-30T05:30:57;99464.53;;;21.60;81.30
64683;BME280;51107;47.652;19.016;2023-07-30T05:33:25;99449.19;;;21.62;81.47
64683;BME280;51107;47.652;19.016;2023-07-30T05:35:53;99457.72;;;21.64;82.17
64683;BME280;51107;47.652;19.016;2023-07-30T05:38:22;99452.53;;;21.69;80.90
64683;BME280;51107;47.652;19.016;2023-07-30T05:40:50;99448.16;;;21.75;81.43
64683;BME280;51107;47.652;19.016;2023-07-30T05:43:19;99444.19;;;21.78;79.75
64683;BME280;51107;47.652;19.016;2023-07-30T05:45:47;99447.78;;;21.83;80.14
64683;BME280;51107;47.652;19.016;2023-07-30T05:48:15;99445.47;;;21.87;80.83
64683;BME280;51107;47.652;19.016;2023-07-30T05:50:43;99452.94;;;21.90;79.96
64683;BME280;51107;47.652;19.016;2023-07-30T05:53:12;99449.84;;;21.93;80.71
64683;BME280;51107;47.652;19.016;2023-07-30T05:55:40;99440.62;;;21.96;79.23
64683;BME280;51107;47.652;19.016;2023-07-30T05:58:09;99437.50;;;21.99;79.00
64683;BME280;51107;47.652;19.016;2023-07-30T06:00:37;99445.22;;;22.00;78.36
64683;BME280;51107;47.652;19.016;2023-07-30T06:03:06;99441.84;;;22.05;79.55
64683;BME280;51107;47.652;19.016;2023-07-30T06:05:40;99446.47;;;22.10;79.99
64683;BME280;51107;47.652;19.016;2023-07-30T06:08:09;99442.09;;;22.03;79.72
64683;BME280;51107;47.652;19.016;2023-07-30T06:10:38;99444.97;;;22.14;81.73
64683;BME280;51107;47.652;19.016;2023-07-30T06:13:06;99444.50;;;22.17;79.43
64683;BME280;51107;47.652;19.016;2023-07-30T06:15:35;99437.91;;;22.19;81.51
64683;BME280;51107;47.652;19.016;2023-07-30T06:18:03;99448.28;;;22.21;81.60
64683;BME280;51107;47.652;19.016;2023-07-30T06:20:32;99452.09;;;22.25;78.95
64683;BME280;51107;47.652;19.016;2023-07-30T06:23:00;99452.75;;;22.32;81.40
64683;BME280;51107;47.652;19.016;2023-07-30T06:25:30;99456.44;;;22.31;81.31
64683;BME280;51107;47.652;19.016;2023-07-30T06:27:59;99456.44;;;22.31;81.58
64683;BME280;51107;47.652;19.016;2023-07-30T06:30:28;99457.72;;;22.41;80.05
64683;BME280;51107;47.652;19.016;2023-07-30T06:32:56;99447.84;;;22.53;82.40
64683;BME280;51107;47.652;19.016;2023-07-30T06:35:25;99434.44;;;22.60;81.06
64683;BME280;51107;47.652;19.016;2023-07-30T06:37:53;99441.69;;;22.64;80.85
64683;BME280;51107;47.652;19.016;2023-07-30T06:40:22;99436.31;;;22.76;80.28
64683;BME280;51107;47.652;19.016;2023-07-30T06:42:50;99440.91;;;22.81;80.43
64683;BME280;51107;47.652;19.016;2023-07-30T06:45:19;99436.28;;;22.88;77.27
64683;BME280;51107;47.652;19.016;2023-07-30T06:47:48;99437.00;;;23.00;78.62
64683;BME280;51107;47.652;19.016;2023-07-30T06:50:16;99445.69;;;22.96;78.20
64683;BME280;51107;47.652;19.016;2023-07-30T06:52:44;99440.56;;;23.06;79.38
64683;BME280;51107;47.652;19.016;2023-07-30T06:55:13;99443.63;;;23.15;75.35
64683;BME280;51107;47.652;19.016;2023-07-30T06:57:41;99445.09;;;23.22;75.37
64683;BME280;51107;47.652;19.016;2023-07-30T07:00:10;99446.13;;;23.21;76.77
64683;BME280;51107;47.652;19.016;2023-07-30T07:02:41;99445.63;;;23.07;76.74
64683;BME280;51107;47.652;19.016;2023-07-30T07:05:10;99440.38;;;22.96;76.23
64683;BME280;51107;47.652;19.016;2023-07-30T07:07:38;99444.78;;;22.90;78.90
64683;BME280;51107;47.652;19.016;2023-07-30T07:10:07;99448.81;;;22.76;78.10
64683;BME280;51107;47.652;19.016;2023-07-30T07:12:36;99452.75;;;22.90;76.94
64683;BME280;51107;47.652;19.016;2023-07-30T07:15:05;99460.97;;;22.88;77.82
64683;BME280;51107;47.652;19.016;2023-07-30T07:17:34;99468.59;;;22.85;76.67
64683;BME280;51107;47.652;19.016;2023-07-30T07:20:03;99479.72;;;22.82;76.76
64683;BME280;51107;47.652;19.016;2023-07-30T07:22:33;99490.56;;;22.80;77.79
64683;BME280;51107;47.652;19.016;2023-07-30T07:25:02;99492.72;;;22.66;80.82
64683;BME280;51107;47.652;19.016;2023-07-30T07:27:30;99501.16;;;22.63;81.15
64683;BME280;51107;47.652;19.016;2023-07-30T07:29:59;99504.25;;;22.60;79.28
64683;BME280;51107;47.652;19.016;2023-07-30T07:32:28;99515.38;;;22.45;79.90
64683;BME280;51107;47.652;19.016;2023-07-30T07:34:56;99525.69;;;22.18;82.16
64683;BME280;51107;47.652;19.016;2023-07-30T07:37:24;99534.09;;;22.15;82.75
64683;BME280;51107;47.652;19.016;2023-07-30T07:39:53;99531.47;;;22.03;84.24
64683;BME280;51107;47.652;19.016;2023-07-30T07:42:21;99533.78;;;21.76;88.37
64683;BME280;51107;47.652;19.016;2023-07-30T07:44:50;99534.47;;;21.71;90.11
64683;BME280;51107;47.652;19.016;2023-07-30T07:47:20;99537.13;;;21.59;91.11
64683;BME280;51107;47.652;19.016;2023-07-30T07:49:49;99554.50;;;21.55;91.82
64683;BME280;51107;47.652;19.016;2023-07-30T07:52:17;99553.13;;;21.52;92.15
64683;BME280;51107;47.652;19.016;2023-07-30T07:54:47;99550.19;;;21.42;93.71
64683;BME280;51107;47.652;19.016;2023-07-30T07:57:16;99554.66;;;21.42;91.29
64683;BME280;51107;47.652;19.016;2023-07-30T07:59:44;99539.94;;;21.34;91.86
64683;BME280;51107;47.652;19.016;2023-07-30T08:02:13;99542.81;;;21.32;91.75
64683;BME280;51107;47.652;19.016;2023-07-30T08:04:41;99542.66;;;21.27;93.27
64683;BME280;51107;47.652;19.016;2023-07-30T08:07:10;99549.78;;;21.15;95.51
64683;BME280;51107;47.652;19.016;2023-07-30T08:09:38;99560.09;;;21.04;97.51
64683;BME280;51107;47.652;19.016;2023-07-30T08:12:07;99564.41;;;20.87;100.00
64683;BME280;51107;47.652;19.016;2023-07-30T08:14:36;99562.25;;;20.96;100.00
64683;BME280;51107;47.652;19.016;2023-07-30T08:17:04;99561.25;;;20.78;100.00
64683;BME280;51107;47.652;19.016;2023-07-30T08:19:33;99569.63;;;20.75;100.00
64683;BME280;51107;47.652;19.016;2023-07-30T08:22:01;99567.06;;;20.68;100.00
64683;BME280;51107;47.652;19.016;2023-07-30T08:24:30;99571.75;;;20.66;100.00
64683;BME280;51107;47.652;19.016;2023-07-30T08:26:59;99563.50;;;20.56;100.00
64683;BME280;51107;47.652;19.016;2023-07-30T08:29:27;99566.69;;;20.65;100.00
64683;BME280;51107;47.652;19.016;2023-07-30T08:31:55;99568.06;;;20.67;100.00
64683;BME280;51107;47.652;19.016;2023-07-30T08:34:24;99570.28;;;20.52;100.00
64683;BME280;51107;47.652;19.016;2023-07-30T08:36:52;99563.50;;;20.56;100.00
64683;BME280;51107;47.652;19.016;2023-07-30T08:39:21;99557.66;;;20.54;100.00
64683;BME280;51107;47.652;19.016;2023-07-30T08:41:49;99543.59;;;20.53;100.00
64683;BME280;51107;47.652;19.016;2023-07-30T08:44:18;99558.22;;;20.56;100.00
64683;BME280;51107;47.652;19.016;2023-07-30T08:46:46;99559.41;;;20.60;100.00
64683;BME280;51107;47.652;19.016;2023-07-30T08:49:15;99559.84;;;20.57;100.00
64683;BME280;51107;47.652;19.016;2023-07-30T08:51:44;99575.50;;;20.59;100.00
64683;BME280;51107;47.652;19.016;2023-07-30T08:54:14;99565.50;;;20.42;100.00
64683;BME280;51107;47.652;19.016;2023-07-30T08:56:44;99571.19;;;20.46;100.00
64683;BME280;51107;47.652;19.016;2023-07-30T08:59:13;99574.69;;;20.40;100.00
64683;BME280;51107;47.652;19.016;2023-07-30T09:01:43;99574.69;;;20.40;100.00
64683;BME280;51107;47.652;19.016;2023-07-30T09:04:15;99568.81;;;20.37;100.00
64683;BME280;51107;47.652;19.016;2023-07-30T09:06:48;99570.44;;;20.39;100.00
64683;BME280;51107;47.652;19.016;2023-07-30T09:09:21;99565.34;;;20.37;100.00
64683;BME280;51107;47.652;19.016;2023-07-30T09:11:52;99564.63;;;20.30;100.00
64683;BME280;51107;47.652;19.016;2023-07-30T09:14:25;99559.78;;;20.27;100.00
64683;BME280;51107;47.652;19.016;2023-07-30T09:16:58;99553.53;;;20.21;100.00
64683;BME280;51107;47.652;19.016;2023-07-30T09:19:27;99555.34;;;20.20;100.00
64683;BME280;51107;47.652;19.016;2023-07-30T09:21:56;99547.06;;;20.17;100.00
64683;BME280;51107;47.652;19.016;2023-07-30T09:24:25;99545.28;;;20.11;100.00
64683;BME280;51107;47.652;19.016;2023-07-30T09:26:53;99549.53;;;20.12;100.00
64683;BME280;51107;47.652;19.016;2023-07-30T09:29:22;99553.22;;;20.11;100.00
64683;BME280;51107;47.652;19.016;2023-07-30T09:31:53;99556.22;;;20.14;100.00
64683;BME280;51107;47.652;19.016;2023-07-30T09:34:25;99551.31;;;20.18;100.00
64683;BME280;51107;47.652;19.016;2023-07-30T09:36:54;99552.50;;;20.22;100.00
64683;BME280;51107;47.652;19.016;2023-07-30T09:39:24;99552.78;;;20.32;100.00
64683;BME280;51107;47.652;19.016;2023-07-30T09:42:00;99549.84;;;20.41;100.00
64683;BME280;51107;47.652;19.016;2023-07-30T09:44:32;99549.69;;;20.35;100.00
64683;BME280;51107;47.652;19.016;2023-07-30T09:47:01;99544.19;;;20.37;100.00
64683;BME280;51107;47.652;19.016;2023-07-30T09:49:33;99545.59;;;20.40;100.00
64683;BME280;51107;47.652;19.016;2023-07-30T09:52:03;99544.34;;;20.42;100.00
64683;BME280;51107;47.652;19.016;2023-07-30T09:54:32;99545.81;;;20.38;100.00
64683;BME280;51107;47.652;19.016;2023-07-30T09:57:01;99538.31;;;20.35;100.00
64683;BME280;51107;47.652;19.016;2023-07-30T09:59:29;99552.06;;;20.44;100.00
64683;BME280;51107;47.652;19.016;2023-07-30T10:01:58;99548.53;;;20.50;100.00
64683;BME280;51107;47.652;19.016;2023-07-30T10:04:27;99540.06;;;20.41;100.00
64683;BME280;51107;47.652;19.016;2023-07-30T10:07:04;99538.59;;;20.45;100.00
64683;BME280;51107;47.652;19.016;2023-07-30T10:09:41;99535.53;;;20.48;100.00
64683;BME280;51107;47.652;19.016;2023-07-30T10:12:16;99541.63;;;20.49;100.00
64683;BME280;51107;47.652;19.016;2023-07-30T10:14:46;99535.94;;;20.45;100.00
64683;BME280;51107;47.652;19.016;2023-07-30T10:17:16;99528.37;;;20.49;100.00
64683;BME280;51107;47.652;19.016;2023-07-30T10:19:47;99533.00;;;20.53;100.00
64683;BME280;51107;47.652;19.016;2023-07-30T10:22:22;99532.00;;;20.54;100.00
64683;BME280;51107;47.652;19.016;2023-07-30T10:25:02;99541.63;;;20.49;100.00
64683;BME280;51107;47.652;19.016;2023-07-30T10:27:39;99539.19;;;20.47;100.00
64683;BME280;51107;47.652;19.016;2023-07-30T10:30:09;99547.12;;;20.47;100.00
64683;BME280;51107;47.652;19.016;2023-07-30T10:32:42;99538.81;;;20.44;100.00
64683;BME280;51107;47.652;19.016;2023-07-30T10:35:41;99543.09;;;20.45;100.00
64683;BME280;51107;47.652;19.016;2023-07-30T10:38:29;99540.00;;;20.48;100.00
64683;BME280;51107;47.652;19.016;2023-07-30T10:41:13;99541.41;;;20.32;100.00
64683;BME280;51107;47.652;19.016;2023-07-30T10:43:46;99533.41;;;20.39;100.00
64683;BME280;51107;47.652;19.016;2023-07-30T10:46:17;99531.34;;;20.41;100.00
64683;BME280;51107;47.652;19.016;2023-07-30T10:48:48;99529.72;;;20.40;100.00
64683;BME280;51107;47.652;19.016;2023-07-30T10:51:18;99536.84;;;20.39;100.00
64683;BME280;51107;47.652;19.016;2023-07-30T10:53:49;99525.97;;;20.47;100.00
64683;BME280;51107;47.652;19.016;2023-07-30T10:56:22;99531.84;;;20.49;100.00
64683;BME280;51107;47.652;19.016;2023-07-30T10:58:52;99536.41;;;20.42;100.00
64683;BME280;51107;47.652;19.016;2023-07-30T11:01:24;99539.03;;;20.42;100.00
64683;BME280;51107;47.652;19.016;2023-07-30T11:03:54;99524.81;;;20.43;100.00
64683;BME280;51107;47.652;19.016;2023-07-30T11:06:26;99525.59;;;20.44;100.00
64683;BME280;51107;47.652;19.016;2023-07-30T11:08:55;99526.78;;;20.48;100.00
64683;BME280;51107;47.652;19.016;2023-07-30T11:11:23;99532.78;;;20.55;100.00
64683;BME280;51107;47.652;19.016;2023-07-30T11:13:53;99533.97;;;20.59;100.00
64683;BME280;51107;47.652;19.016;2023-07-30T11:16:22;99531.50;;;20.46;100.00
64683;BME280;51107;47.652;19.016;2023-07-30T11:18:50;99531.41;;;20.52;100.00
64683;BME280;51107;47.652;19.016;2023-07-30T11:21:19;99525.75;;;20.49;100.00
64683;BME280;51107;47.652;19.016;2023-07-30T11:23:51;99530.44;;;20.47;100.00
64683;BME280;51107;47.652;19.016;2023-07-30T11:26:19;99531.94;;;20.43;100.00
64683;BME280;51107;47.652;19.016;2023-07-30T11:28:48;99532.53;;;20.26;100.00
64683;BME280;51107;47.652;19.016;2023-07-30T11:31:18;99528.84;;;20.27;100.00
64683;BME280;51107;47.652;19.016;2023-07-30T11:33:51;99534.72;;;20.29;100.00
64683;BME280;51107;47.652;19.016;2023-07-30T11:36:22;99538.16;;;20.30;100.00
64683;BME280;51107;47.652;19.016;2023-07-30T11:38:51;99538.91;;;20.18;100.00
64683;BME280;51107;47.652;19.016;2023-07-30T11:41:23;99548.19;;;20.02;100.00
64683;BME280;51107;47.652;19.016;2023-07-30T11:43:54;99544.16;;;20.00;100.00
64683;BME280;51107;47.652;19.016;2023-07-30T11:46:22;99533.00;;;19.98;100.00
64683;BME280;51107;47.652;19.016;2023-07-30T11:48:52;99535.69;;;19.91;100.00
64683;BME280;51107;47.652;19.016;2023-07-30T11:51:27;99532.03;;;19.92;100.00
64683;BME280;51107;47.652;19.016;2023-07-30T11:53:58;99530.94;;;20.00;100.00
64683;BME280;51107;47.652;19.016;2023-07-30T11:56:36;99526.75;;;20.11;100.00
64683;BME280;51107;47.652;19.016;2023-07-30T11:59:07;99530.81;;;20.13;100.00
64683;BME280;51107;47.652;19.016;2023-07-30T12:01:36;99531.34;;;20.22;100.00
64683;BME280;51107;47.652;19.016;2023-07-30T12:04:06;99545.88;;;20.31;100.00
64683;BME280;51107;47.652;19.016;2023-07-30T12:06:45;99549.56;;;20.30;100.00
64683;BME280;51107;47.652;19.016;2023-07-30T12:09:17;99539.41;;;20.27;100.00
64683;BME280;51107;47.652;19.016;2023-07-30T12:12:01;99550.81;;;20.28;100.00
64683;BME280;51107;47.652;19.016;2023-07-30T12:17:17;99561.75;;;20.13;100.00
64683;BME280;51107;47.652;19.016;2023-07-30T12:19:45;99555.22;;;19.90;100.00
64683;BME280;51107;47.652;19.016;2023-07-30T12:22:14;99550.91;;;19.71;100.00
64683;BME280;51107;47.652;19.016;2023-07-30T12:24:43;99541.47;;;19.56;100.00
64683;BME280;51107;47.652;19.016;2023-07-30T12:27:12;99536.00;;;19.51;100.00
64683;BME280;51107;47.652;19.016;2023-07-30T12:29:40;99535.03;;;19.45;100.00
64683;BME280;51107;47.652;19.016;2023-07-30T12:32:09;99521.28;;;19.37;100.00
64683;BME280;51107;47.652;19.016;2023-07-30T12:34:37;99524.34;;;19.33;100.00
64683;BME280;51107;47.652;19.016;2023-07-30T12:37:06;99531.25;;;19.34;100.00
64683;BME280;51107;47.652;19.016;2023-07-30T12:39:34;99512.94;;;19.40;100.00
64683;BME280;51107;47.652;19.016;2023-07-30T12:42:03;99510.25;;;19.46;100.00
64683;BME280;51107;47.652;19.016;2023-07-30T12:44:31;99505.50;;;19.55;100.00
64683;BME280;51107;47.652;19.016;2023-07-30T12:46:59;99505.81;;;19.65;100.00
64683;BME280;51107;47.652;19.016;2023-07-30T12:49:28;99502.47;;;19.77;100.00
64683;BME280;51107;47.652;19.016;2023-07-30T12:51:56;99492.97;;;19.69;100.00
64683;BME280;51107;47.652;19.016;2023-07-30T12:54:24;99485.44;;;19.73;100.00
64683;BME280;51107;47.652;19.016;2023-07-30T12:56:53;99496.34;;;19.83;100.00
64683;BME280;51107;47.652;19.016;2023-07-30T12:59:21;99485.53;;;19.84;100.00